Jackpot, Nevada
Current Conditions -  °F | °C
As of 7:53 AM on Saturday 27 Dec 2014 (Local Time) from KTWF Reporting Station
Scattered Clouds Scattered Clouds  
Wind Chill: 14°   Ceiling: Unl
Heat Index: 26°   Visibility: 10mi
Dew Point: 14°   Wind: 14mph
Humidity: 60%   Direction: 190°S
Pressure: 30.3"   Gusts: NA
Location:  41.98°N, 114.68°W
Report Text: KTWF 271553Z 19012KT 10SM SCT037 M03/M10 A3030 RMK AO2 SLP282 T10331100
Loading
Personal Weather Stations






























Interactive Weather Map New forecast layout! Learn more

10-Day Weather Forecast

Advertisements
Track Severe Weather on mobile